createdAt,value
2023-04-18T00:00:30.271Z,23.77
2023-04-18T00:02:57.044Z,21.10
2023-04-18T00:05:23.675Z,20.17
2023-04-18T00:07:51.434Z,22.92
2023-04-18T00:10:17.865Z,18.38
2023-04-18T00:12:44.312Z,21.10
2023-04-18T00:15:11.576Z,21.38
2023-04-18T00:17:38.577Z,19.63
2023-04-18T00:20:12.733Z,19.50
2023-04-18T00:22:43.037Z,20.17
2023-04-18T00:25:10.410Z,21.17
2023-04-18T00:27:37.713Z,18.92
2023-04-18T00:30:04.743Z,20.60
2023-04-18T00:32:31.233Z,21.95
2023-04-18T00:34:59.060Z,22.77
2023-04-18T00:37:25.818Z,21.77
2023-04-18T00:39:53.908Z,21.10
2023-04-18T00:42:21.644Z,19.67
2023-04-18T00:44:48.577Z,22.90
2023-04-18T00:47:18.096Z,18.13
2023-04-18T00:49:45.420Z,19.60
2023-04-18T00:52:11.970Z,18.13
2023-04-18T00:54:39.084Z,18.67
2023-04-18T00:57:05.669Z,21.40
2023-04-18T00:59:33.929Z,18.98
2023-04-18T01:02:00.635Z,17.67
2023-04-18T01:04:27.436Z,19.27
2023-04-18T01:06:54.313Z,21.20
2023-04-18T01:09:21.147Z,19.25
2023-04-18T01:11:47.784Z,21.02
2023-04-18T01:14:16.065Z,20.55
2023-04-18T01:16:44.093Z,20.33
2023-04-18T01:19:11.479Z,20.05
2023-04-18T01:21:43.956Z,20.25
2023-04-18T01:24:14.757Z,19.02
2023-04-18T01:26:43.660Z,25.02
2023-04-18T01:29:10.470Z,22.08
2023-04-18T01:31:37.612Z,19.80
2023-04-18T01:34:04.921Z,25.90
2023-04-18T01:36:32.026Z,20.75
2023-04-18T01:38:59.178Z,22.88
2023-04-18T01:41:25.733Z,21.52
2023-04-18T01:43:52.206Z,20.30
2023-04-18T01:46:19.591Z,21.50
2023-04-18T01:48:46.140Z,25.45
2023-04-18T01:51:12.652Z,21.55
2023-04-18T01:53:39.092Z,21.08
2023-04-18T01:56:05.652Z,26.67
2023-04-18T01:58:32.153Z,24.98
2023-04-18T02:00:58.750Z,25.55
2023-04-18T02:03:25.553Z,30.55
2023-04-18T02:05:52.535Z,23.30
2023-04-18T02:08:18.979Z,22.98
2023-04-18T02:10:45.590Z,27.92
2023-04-18T02:13:12.055Z,24.88
2023-04-18T02:15:38.490Z,24.05
2023-04-18T02:18:05.647Z,24.63
2023-04-18T02:20:33.493Z,21.75
2023-04-18T02:23:01.242Z,22.67
2023-04-18T02:25:29.824Z,25.85
2023-04-18T02:27:56.800Z,24.58
2023-04-18T02:30:23.716Z,23.83
2023-04-18T02:32:52.126Z,24.77
2023-04-18T02:35:21.786Z,19.40
2023-04-18T02:37:48.731Z,20.75
2023-04-18T02:40:17.008Z,24.55
2023-04-18T02:42:43.661Z,23.30
2023-04-18T02:45:13.858Z,19.23
2023-04-18T02:47:53.769Z,23.77
2023-04-18T02:50:22.572Z,22.02
2023-04-18T02:52:49.615Z,26.13
2023-04-18T02:55:18.082Z,22.60
2023-04-18T02:57:45.441Z,24.42
2023-04-18T03:00:30.417Z,21.05
2023-04-18T03:03:17.272Z,23.85
2023-04-18T03:05:57.474Z,20.63
2023-04-18T03:08:23.951Z,21.23
2023-04-18T03:10:50.631Z,27.25
2023-04-18T03:13:20.573Z,22.88
2023-04-18T03:15:47.640Z,20.20
2023-04-18T03:18:14.715Z,23.20
2023-04-18T03:20:42.185Z,21.05
2023-04-18T03:23:08.642Z,22.15
2023-04-18T03:25:35.766Z,24.58
2023-04-18T03:28:03.006Z,21.70
2023-04-18T03:30:29.527Z,22.92
2023-04-18T03:32:58.694Z,25.00
2023-04-18T03:35:25.582Z,19.90
2023-04-18T03:37:52.134Z,22.00
2023-04-18T03:40:23.881Z,21.58
2023-04-18T03:42:52.791Z,20.70
2023-04-18T03:45:19.606Z,22.35
2023-04-18T03:47:46.989Z,19.45
2023-04-18T03:50:13.922Z,18.85
2023-04-18T03:52:42.247Z,23.20
2023-04-18T03:55:08.836Z,22.90
2023-04-18T03:57:35.366Z,21.10
2023-04-18T04:00:08.160Z,22.75
2023-04-18T04:02:42.220Z,19.35
2023-04-18T04:05:11.575Z,19.77
2023-04-18T04:07:38.355Z,23.50
2023-04-18T04:10:06.080Z,24.65
2023-04-18T04:12:32.559Z,19.88
2023-04-18T04:14:59.277Z,21.85
2023-04-18T04:17:26.118Z,19.25
2023-04-18T04:19:52.758Z,21.65
2023-04-18T04:22:20.879Z,22.20
2023-04-18T04:24:47.927Z,21.70
2023-04-18T04:27:18.908Z,19.85
2023-04-18T04:29:46.213Z,23.08
2023-04-18T04:32:13.496Z,20.67
2023-04-18T04:34:41.693Z,20.00
2023-04-18T04:37:10.572Z,22.67
2023-04-18T04:39:46.312Z,18.80
2023-04-18T04:42:35.878Z,20.40
2023-04-18T04:45:10.469Z,21.35
2023-04-18T04:47:37.064Z,22.27
2023-04-18T04:50:04.422Z,18.88
2023-04-18T04:52:32.428Z,19.33
2023-04-18T04:54:58.880Z,22.55
2023-04-18T04:57:26.121Z,17.90
2023-04-18T04:59:52.924Z,18.15
2023-04-18T05:02:23.254Z,21.92
2023-04-18T05:04:49.895Z,21.42
2023-04-18T05:07:16.410Z,24.35
2023-04-18T05:09:43.096Z,21.33
2023-04-18T05:12:09.593Z,19.45
2023-04-18T05:14:36.024Z,18.38
2023-04-18T05:17:04.112Z,24.38
2023-04-18T05:19:30.674Z,19.50
2023-04-18T05:21:57.267Z,20.10
2023-04-18T05:24:23.744Z,21.73
2023-04-18T05:26:50.266Z,21.73
2023-04-18T05:29:16.960Z,19.30
2023-04-18T05:31:43.432Z,24.00
2023-04-18T05:34:09.858Z,19.40
2023-04-18T05:36:36.747Z,20.88
2023-04-18T05:39:03.344Z,24.88
2023-04-18T05:41:29.851Z,17.55
2023-04-18T05:44:04.832Z,17.70
2023-04-18T05:46:32.231Z,22.08
2023-04-18T05:48:58.787Z,22.30
2023-04-18T05:51:26.446Z,18.67
2023-04-18T05:53:53.147Z,20.30
2023-04-18T05:56:19.797Z,18.38
2023-04-18T05:58:47.559Z,21.15
2023-04-18T06:01:18.644Z,20.52
2023-04-18T06:03:45.301Z,18.38
2023-04-18T06:06:11.910Z,19.38
2023-04-18T06:08:38.933Z,19.85
2023-04-18T06:11:05.583Z,18.45
2023-04-18T06:13:32.505Z,19.42
2023-04-18T06:16:00.247Z,19.45
2023-04-18T06:18:26.810Z,18.10
2023-04-18T06:20:53.401Z,21.15
2023-04-18T06:23:19.831Z,20.70
2023-04-18T06:25:46.308Z,20.02
2023-04-18T06:28:12.719Z,23.17
2023-04-18T06:30:39.174Z,22.08
2023-04-18T06:33:10.402Z,20.13
2023-04-18T06:35:36.986Z,19.80
2023-04-18T06:38:03.721Z,23.00
2023-04-18T06:40:30.168Z,18.75
2023-04-18T06:42:57.051Z,18.05
2023-04-18T06:45:23.554Z,19.23
2023-04-18T06:47:51.407Z,18.88
2023-04-18T06:50:17.912Z,19.73
2023-04-18T06:52:45.641Z,23.77
2023-04-18T06:55:13.462Z,20.52
2023-04-18T06:57:41.251Z,18.48
2023-04-18T07:00:08.746Z,27.00
2023-04-18T07:02:36.271Z,19.90
2023-04-18T07:05:02.917Z,18.70
2023-04-18T07:07:29.378Z,20.35
2023-04-18T07:09:55.776Z,16.23
2023-04-18T07:12:22.335Z,32.92
2023-04-18T07:14:49.833Z,22.10
2023-04-18T07:17:16.347Z,17.23
2023-04-18T07:19:42.840Z,19.50
2023-04-18T07:22:09.612Z,22.33
2023-04-18T07:24:36.426Z,19.48
2023-04-18T07:27:03.353Z,17.08
2023-04-18T07:29:29.860Z,21.48
2023-04-18T07:31:56.375Z,18.20
2023-04-18T07:34:22.989Z,19.70
2023-04-18T07:36:49.545Z,20.05
2023-04-18T07:39:16.161Z,16.52
2023-04-18T07:41:42.648Z,17.05
2023-04-18T07:44:09.089Z,18.15
2023-04-18T07:46:35.702Z,17.77
2023-04-18T07:49:05.077Z,18.10
2023-04-18T07:51:31.964Z,20.60
2023-04-18T07:53:59.311Z,16.25
2023-04-18T07:56:26.439Z,14.55
2023-04-18T07:58:52.872Z,20.25
2023-04-18T08:01:21.022Z,14.45
2023-04-18T08:03:50.572Z,16.73
2023-04-18T08:06:17.780Z,18.85
2023-04-18T08:08:44.379Z,16.67
2023-04-18T08:11:10.824Z,15.75
2023-04-18T08:13:37.263Z,20.88
2023-04-18T08:16:03.769Z,27.90
2023-04-18T08:18:30.396Z,14.82
2023-04-18T08:20:56.899Z,19.48
2023-04-18T08:23:23.414Z,16.65
2023-04-18T08:25:50.052Z,16.45
2023-04-18T08:28:16.480Z,18.02
2023-04-18T08:30:44.070Z,15.50
2023-04-18T08:33:10.721Z,16.42
2023-04-18T08:35:37.164Z,19.05
2023-04-18T08:38:03.609Z,14.30
2023-04-18T08:40:30.434Z,14.77
2023-04-18T08:42:57.454Z,17.40
2023-04-18T08:45:24.321Z,15.65
2023-04-18T08:47:51.360Z,16.52
2023-04-18T08:50:18.467Z,15.60
2023-04-18T08:52:48.821Z,16.42
2023-04-18T08:55:16.205Z,20.65
2023-04-18T08:57:42.642Z,21.00
2023-04-18T09:00:11.730Z,20.77
2023-04-18T09:02:42.599Z,15.45
2023-04-18T09:05:15.987Z,18.27
2023-04-18T09:07:42.712Z,16.92
2023-04-18T09:10:10.144Z,16.30
2023-04-18T09:12:46.316Z,18.00
2023-04-18T09:15:16.450Z,15.30
2023-04-18T09:17:49.553Z,23.40
2023-04-18T09:20:47.540Z,16.00
2023-04-18T09:23:23.355Z,13.50
2023-04-18T09:25:51.006Z,16.05
2023-04-18T09:28:29.939Z,16.95
2023-04-18T09:30:57.483Z,12.60
2023-04-18T09:33:32.428Z,14.13
2023-04-18T09:36:19.417Z,11.35
2023-04-18T09:38:46.139Z,15.95
2023-04-18T09:41:15.589Z,14.30
2023-04-18T09:43:42.114Z,16.52
2023-04-18T09:46:09.019Z,16.90
2023-04-18T09:48:35.745Z,17.23
2023-04-18T09:51:05.893Z,13.57
2023-04-18T09:53:33.040Z,22.30
2023-04-18T09:55:59.807Z,15.23
2023-04-18T09:58:29.205Z,18.35
2023-04-18T10:00:56.332Z,25.20
2023-04-18T10:03:24.633Z,17.33
2023-04-18T10:05:51.814Z,16.63
2023-04-18T10:08:18.459Z,18.88
2023-04-18T10:10:44.877Z,17.83
2023-04-18T10:13:12.358Z,21.23
2023-04-18T10:15:38.991Z,21.63
2023-04-18T10:18:09.640Z,16.13
2023-04-18T10:20:36.388Z,18.75
2023-04-18T10:23:21.655Z,25.60
2023-04-18T10:25:49.379Z,16.42
2023-04-18T10:28:15.939Z,24.65
2023-04-18T10:30:42.408Z,15.90
2023-04-18T10:33:31.935Z,17.08
2023-04-18T10:36:00.305Z,13.07
2023-04-18T10:38:27.238Z,14.07
2023-04-18T10:40:54.040Z,19.38
2023-04-18T10:43:20.519Z,14.95
2023-04-18T10:46:10.102Z,13.73
2023-04-18T10:51:13.037Z,13.88
2023-04-18T10:53:39.964Z,14.82
2023-04-18T10:56:07.831Z,15.13
2023-04-18T10:58:34.399Z,13.48
2023-04-18T11:01:02.374Z,16.98
2023-04-18T11:03:35.301Z,15.35
2023-04-18T11:06:02.993Z,14.48
2023-04-18T11:08:30.157Z,14.88
2023-04-18T11:10:57.825Z,12.30
2023-04-18T11:13:24.552Z,15.60
2023-04-18T11:15:50.978Z,13.23
2023-04-18T11:18:17.530Z,15.52
2023-04-18T11:20:48.983Z,15.20
2023-04-18T11:23:24.946Z,15.00
2023-04-18T11:25:54.424Z,13.80
2023-04-18T11:28:21.614Z,16.23
2023-04-18T11:30:48.350Z,15.77
2023-04-18T11:33:15.423Z,14.35
2023-04-18T11:35:42.823Z,16.23
2023-04-18T11:38:10.451Z,13.98
2023-04-18T11:40:37.186Z,14.55
2023-04-18T11:43:04.950Z,18.13
2023-04-18T11:45:31.687Z,13.55
2023-04-18T11:47:59.379Z,11.75
2023-04-18T11:50:26.360Z,14.18
2023-04-18T11:52:54.175Z,15.05
2023-04-18T11:55:21.916Z,14.25
2023-04-18T11:57:58.326Z,14.88
2023-04-18T12:00:31.071Z,12.10
2023-04-18T12:02:58.588Z,16.35
2023-04-18T12:05:26.672Z,14.73
2023-04-18T12:07:53.282Z,11.68
2023-04-18T12:10:19.686Z,14.73
2023-04-18T12:12:53.220Z,12.43
2023-04-18T12:15:21.792Z,14.07
2023-04-18T12:17:48.611Z,15.73
2023-04-18T12:20:16.106Z,12.43
2023-04-18T12:22:42.552Z,13.75
2023-04-18T12:25:24.973Z,13.55
2023-04-18T12:28:04.117Z,12.13
2023-04-18T12:30:31.785Z,14.13
2023-04-18T12:33:01.972Z,14.32
2023-04-18T12:35:29.034Z,13.25
2023-04-18T12:37:56.461Z,11.38
2023-04-18T12:40:23.217Z,11.70
2023-04-18T12:42:50.463Z,12.23
2023-04-18T12:45:17.554Z,9.88
2023-04-18T12:47:45.316Z,10.82
2023-04-18T12:50:15.713Z,13.55
2023-04-18T12:52:42.375Z,13.93
2023-04-18T12:55:09.482Z,14.32
2023-04-18T12:57:36.281Z,14.30
2023-04-18T13:00:06.170Z,10.93
2023-04-18T13:02:50.818Z,12.93
2023-04-18T13:05:18.445Z,12.52
2023-04-18T13:07:44.921Z,11.23
2023-04-18T13:10:12.614Z,13.20
2023-04-18T13:12:39.822Z,10.18
2023-04-18T13:15:07.164Z,9.88
2023-04-18T13:17:34.097Z,13.35
2023-04-18T13:20:00.775Z,9.98
2023-04-18T13:22:28.478Z,11.52
2023-04-18T13:24:54.897Z,13.13
2023-04-18T13:27:21.595Z,14.27
2023-04-18T13:29:48.081Z,11.35
2023-04-18T13:32:14.720Z,12.82
2023-04-18T13:34:45.680Z,10.98
2023-04-18T13:37:12.769Z,11.93
2023-04-18T13:39:39.260Z,15.48
2023-04-18T13:42:07.551Z,8.98
2023-04-18T13:44:35.032Z,9.23
2023-04-18T13:47:02.082Z,16.98
2023-04-18T13:49:28.761Z,13.48
2023-04-18T13:51:57.429Z,17.27
2023-04-18T13:54:24.381Z,16.10
2023-04-18T13:56:50.871Z,10.88
2023-04-18T13:59:17.398Z,18.15
2023-04-18T14:01:43.929Z,13.00
2023-04-18T14:04:10.724Z,27.05
2023-04-18T14:06:38.313Z,12.02
2023-04-18T14:09:06.664Z,14.95
2023-04-18T14:11:33.532Z,13.93
2023-04-18T14:14:00.156Z,7.88
2023-04-18T14:19:13.018Z,12.65
2023-04-18T14:21:39.587Z,13.55
2023-04-18T14:24:06.258Z,11.70
2023-04-18T14:26:32.737Z,11.00
2023-04-18T14:28:59.171Z,11.82
2023-04-18T14:31:25.990Z,12.57
2023-04-18T14:33:52.547Z,10.50
2023-04-18T14:36:19.411Z,10.18
2023-04-18T14:38:49.529Z,11.35
2023-04-18T14:41:16.516Z,7.85
2023-04-18T14:43:43.017Z,8.88
2023-04-18T14:46:13.396Z,12.48
2023-04-18T14:48:40.017Z,8.55
2023-04-18T14:51:07.047Z,11.27
2023-04-18T14:53:33.977Z,10.25
2023-04-18T14:56:00.376Z,9.50
2023-04-18T14:58:26.838Z,9.30
2023-04-18T15:00:53.248Z,9.90
2023-04-18T15:03:19.849Z,11.75
2023-04-18T15:05:49.207Z,9.48
2023-04-18T15:08:16.267Z,11.43
2023-04-18T15:10:42.720Z,14.95
2023-04-18T15:13:09.636Z,16.17
2023-04-18T15:15:37.708Z,7.93
2023-04-18T15:18:04.530Z,11.20
2023-04-18T15:20:31.195Z,11.05
2023-04-18T15:22:57.630Z,9.40
2023-04-18T15:25:25.993Z,8.10
2023-04-18T15:27:52.753Z,8.90
2023-04-18T15:30:19.364Z,9.07
2023-04-18T15:32:45.977Z,11.00
2023-04-18T15:35:12.866Z,9.45
2023-04-18T15:37:39.408Z,9.73
2023-04-18T15:40:08.605Z,8.07
2023-04-18T15:42:35.163Z,7.68
2023-04-18T15:45:01.668Z,8.68
2023-04-18T15:47:28.187Z,7.75
2023-04-18T15:49:54.734Z,8.52
2023-04-18T15:52:21.330Z,9.57
2023-04-18T15:54:47.772Z,9.68
2023-04-18T15:57:14.261Z,7.25
2023-04-18T15:59:40.739Z,10.38
2023-04-18T16:02:08.362Z,7.72
2023-04-18T16:04:35.053Z,13.68
2023-04-18T16:07:01.742Z,20.05
2023-04-18T16:09:28.138Z,15.00
2023-04-18T16:11:54.651Z,11.52
2023-04-18T16:14:21.085Z,14.55
2023-04-18T16:16:47.633Z,25.08
2023-04-18T16:19:14.409Z,16.17
2023-04-18T16:21:40.990Z,13.10
2023-04-18T16:24:07.433Z,23.75
2023-04-18T16:26:34.012Z,7.72
2023-04-18T16:29:00.680Z,9.75
2023-04-18T16:31:27.220Z,7.30
2023-04-18T16:33:53.775Z,7.88
2023-04-18T16:36:20.520Z,12.55
2023-04-18T16:38:46.945Z,9.95
2023-04-18T16:41:13.378Z,10.40
2023-04-18T16:43:39.854Z,10.05
2023-04-18T16:46:06.504Z,8.95
2023-04-18T16:48:33.071Z,9.50
2023-04-18T16:50:59.476Z,11.20
2023-04-18T16:53:26.115Z,8.05
2023-04-18T16:55:53.475Z,14.48
2023-04-18T16:58:21.486Z,12.93
2023-04-18T17:00:47.886Z,11.45
2023-04-18T17:03:14.560Z,10.25
2023-04-18T17:05:41.270Z,11.45
2023-04-18T17:08:07.802Z,9.45
2023-04-18T17:10:34.461Z,9.82
2023-04-18T17:13:02.263Z,11.82
2023-04-18T17:15:28.720Z,11.50
2023-04-18T17:17:56.616Z,15.30
2023-04-18T17:20:23.929Z,13.23
2023-04-18T17:22:51.095Z,17.30
2023-04-18T17:25:17.524Z,16.98
2023-04-18T17:27:44.078Z,19.90
2023-04-18T17:30:10.768Z,15.48
2023-04-18T17:32:42.808Z,12.20
2023-04-18T17:35:09.642Z,11.35
2023-04-18T17:37:36.125Z,13.18
2023-04-18T17:40:06.737Z,13.65
2023-04-18T17:42:34.026Z,18.00
2023-04-18T17:45:01.558Z,14.00
2023-04-18T17:47:28.030Z,13.93
2023-04-18T17:49:54.652Z,16.63
2023-04-18T17:52:21.657Z,16.90
2023-04-18T17:54:48.103Z,15.15
2023-04-18T17:57:14.610Z,14.95
2023-04-18T17:59:41.215Z,12.82
2023-04-18T18:02:08.171Z,14.57
2023-04-18T18:04:34.813Z,16.88
2023-04-18T18:07:01.521Z,14.80
2023-04-18T18:09:27.950Z,14.95
2023-04-18T18:11:56.068Z,16.50
2023-04-18T18:14:22.848Z,16.42
2023-04-18T18:16:49.411Z,18.90
2023-04-18T18:19:16.655Z,19.58
2023-04-18T18:21:43.286Z,15.98
2023-04-18T18:24:09.837Z,17.33
2023-04-18T18:26:36.351Z,18.70
2023-04-18T18:29:09.128Z,19.25
2023-04-18T18:31:36.073Z,15.68
2023-04-18T18:34:02.707Z,16.45
2023-04-18T18:36:29.277Z,16.50
2023-04-18T18:38:55.744Z,11.70
2023-04-18T18:41:24.972Z,14.38
2023-04-18T18:43:51.769Z,12.52
2023-04-18T18:46:18.288Z,18.42
2023-04-18T18:48:44.771Z,14.38
2023-04-18T18:51:11.628Z,17.85
2023-04-18T18:53:40.236Z,11.32
2023-04-18T18:56:08.693Z,12.52
2023-04-18T18:58:35.955Z,11.20
2023-04-18T19:01:03.376Z,11.82
2023-04-18T19:03:30.364Z,16.33
2023-04-18T19:05:57.002Z,10.85
2023-04-18T19:08:23.524Z,12.35
2023-04-18T19:10:50.634Z,14.55
2023-04-18T19:13:18.807Z,14.20
2023-04-18T19:15:45.257Z,11.35
2023-04-18T19:18:12.484Z,14.65
2023-04-18T19:20:40.396Z,11.15
2023-04-18T19:23:06.887Z,11.93
2023-04-18T19:25:33.392Z,15.07
2023-04-18T19:27:59.873Z,12.68
2023-04-18T19:30:26.300Z,15.85
2023-04-18T19:32:52.862Z,18.95
2023-04-18T19:35:19.368Z,15.55
2023-04-18T19:37:46.423Z,15.05
2023-04-18T19:40:14.121Z,17.05
2023-04-18T19:42:40.991Z,15.70
2023-04-18T19:45:07.875Z,10.63
2023-04-18T19:47:34.684Z,12.57
2023-04-18T19:50:01.313Z,11.35
2023-04-18T19:52:27.750Z,10.20
2023-04-18T19:54:55.167Z,10.10
2023-04-18T19:57:21.736Z,9.93
2023-04-18T19:59:48.154Z,9.88
2023-04-18T20:02:14.666Z,8.52
2023-04-18T20:04:41.799Z,10.77
2023-04-18T20:07:08.468Z,13.48
2023-04-18T20:09:34.911Z,10.55
2023-04-18T20:12:02.634Z,13.07
2023-04-18T20:14:29.385Z,9.13
2023-04-18T20:16:56.140Z,9.63
2023-04-18T20:19:24.554Z,11.82
2023-04-18T20:21:51.560Z,8.07
2023-04-18T20:24:17.983Z,10.07
2023-04-18T20:26:44.423Z,10.43
2023-04-18T20:29:11.260Z,7.63
2023-04-18T20:31:42.145Z,8.63
2023-04-18T20:34:09.694Z,9.07
2023-04-18T20:36:36.511Z,7.18
2023-04-18T20:39:03.415Z,8.70
2023-04-18T20:41:31.053Z,11.98
2023-04-18T20:43:58.671Z,7.30
2023-04-18T20:46:25.274Z,14.32
2023-04-18T20:48:51.728Z,12.00
2023-04-18T20:51:18.202Z,8.45
2023-04-18T20:53:44.728Z,12.32
2023-04-18T20:56:11.315Z,11.13
2023-04-18T20:58:37.747Z,8.32
2023-04-18T21:01:04.254Z,7.63
2023-04-18T21:03:31.046Z,11.98
2023-04-18T21:05:57.611Z,10.38
2023-04-18T21:08:24.114Z,7.65
2023-04-18T21:10:50.745Z,11.07
2023-04-18T21:13:17.413Z,11.02
2023-04-18T21:15:43.888Z,8.68
2023-04-18T21:18:10.703Z,11.15
2023-04-18T21:20:37.221Z,8.95
2023-04-18T21:23:03.665Z,7.80
2023-04-18T21:25:30.228Z,11.40
2023-04-18T21:27:56.688Z,6.97
2023-04-18T21:30:23.255Z,8.43
2023-04-18T21:32:51.496Z,10.70
2023-04-18T21:35:20.143Z,7.72
2023-04-18T21:37:47.868Z,8.88
2023-04-18T21:40:14.638Z,9.68
2023-04-18T21:42:41.230Z,7.35
2023-04-18T21:45:08.080Z,7.55
2023-04-18T21:47:34.518Z,10.35
2023-04-18T21:50:01.012Z,7.55
2023-04-18T21:52:27.442Z,8.10
2023-04-18T21:54:53.948Z,10.82
2023-04-18T21:57:20.342Z,9.98
2023-04-18T21:59:46.848Z,7.63
2023-04-18T22:02:13.298Z,10.88
2023-04-18T22:04:42.535Z,12.75
2023-04-18T22:07:12.500Z,8.35
2023-04-18T22:09:38.988Z,9.82
2023-04-18T22:12:05.457Z,7.50
2023-04-18T22:14:35.203Z,7.65
2023-04-18T22:17:03.163Z,10.00
2023-04-18T22:19:31.311Z,9.15
2023-04-18T22:21:57.957Z,7.53
2023-04-18T22:24:25.944Z,9.10
2023-04-18T22:26:52.611Z,8.60
2023-04-18T22:29:19.205Z,8.23
2023-04-18T22:31:45.764Z,9.60
2023-04-18T22:34:12.302Z,7.55
2023-04-18T22:36:38.854Z,7.53
2023-04-18T22:39:06.257Z,10.50
2023-04-18T22:41:32.753Z,7.88
2023-04-18T22:43:59.173Z,5.70
2023-04-18T22:46:26.091Z,13.38
2023-04-18T22:48:52.682Z,9.55
2023-04-18T22:51:20.195Z,5.40
2023-04-18T22:53:46.626Z,7.70
2023-04-18T22:56:13.076Z,7.90
2023-04-18T22:58:39.577Z,8.95
2023-04-18T23:01:06.024Z,12.57
2023-04-18T23:03:34.356Z,11.13
2023-04-18T23:06:01.406Z,5.53
2023-04-18T23:08:28.083Z,9.27
2023-04-18T23:10:54.499Z,11.55
2023-04-18T23:13:21.082Z,8.80
2023-04-18T23:15:47.657Z,7.40
2023-04-18T23:18:14.195Z,8.82
2023-04-18T23:20:40.692Z,7.10
2023-04-18T23:23:07.146Z,6.72
2023-04-18T23:25:33.879Z,7.60
2023-04-18T23:28:00.768Z,6.32
2023-04-18T23:30:27.266Z,9.05
2023-04-18T23:32:53.935Z,8.90
2023-04-18T23:35:20.392Z,6.28
2023-04-18T23:37:46.909Z,8.38
2023-04-18T23:40:13.335Z,10.82
2023-04-18T23:42:39.806Z,6.35
2023-04-18T23:45:06.460Z,5.80
2023-04-18T23:47:35.308Z,7.85
2023-04-18T23:50:01.823Z,7.38
2023-04-18T23:52:28.319Z,9.07
2023-04-18T23:54:55.460Z,8.60
2023-04-18T23:57:21.950Z,6.00
2023-04-18T23:59:48.855Z,8.23
